createdAt,value
2019-03-23T00:04:51.733Z,4.70
2019-03-23T00:10:01.992Z,4.60
2019-03-23T00:15:09.407Z,4.80
2019-03-23T00:20:22.571Z,4.90
2019-03-23T00:25:27.864Z,4.90
2019-03-23T00:30:38.122Z,4.90
2019-03-23T00:35:43.572Z,4.90
2019-03-23T00:40:51.773Z,4.80
2019-03-23T00:45:56.744Z,4.70
2019-03-23T00:51:02.006Z,4.60
2019-03-23T00:56:16.480Z,4.60
2019-03-23T01:01:21.813Z,4.60
2019-03-23T01:06:30.586Z,4.50
2019-03-23T01:11:37.125Z,4.60
2019-03-23T01:16:46.508Z,4.50
2019-03-23T01:21:51.939Z,4.60
2019-03-23T01:27:00.056Z,4.60
2019-03-23T01:32:04.231Z,4.70
2019-03-23T01:37:16.177Z,4.70
2019-03-23T01:42:20.371Z,4.70
2019-03-23T01:47:26.405Z,4.70
2019-03-23T01:52:31.067Z,4.60
2019-03-23T01:57:41.185Z,4.50
2019-03-23T02:02:49.106Z,4.50
2019-03-23T02:07:54.812Z,4.40
2019-03-23T02:12:59.473Z,4.50
2019-03-23T02:18:04.536Z,5.40
2019-03-23T02:23:08.801Z,4.30
2019-03-23T02:28:13.293Z,4.10
2019-03-23T02:33:17.702Z,4.10
2019-03-23T02:38:21.838Z,4.10
2019-03-23T02:43:27.560Z,3.90
2019-03-23T02:48:31.663Z,3.70
2019-03-23T02:53:36.116Z,3.70
2019-03-23T02:58:40.592Z,3.90
2019-03-23T03:03:47.913Z,3.50
2019-03-23T03:08:51.493Z,3.50
2019-03-23T03:13:56.399Z,3.40
2019-03-23T03:19:00.553Z,3.50
2019-03-23T03:24:04.639Z,3.50
2019-03-23T03:29:09.032Z,3.50
2019-03-23T03:34:14.603Z,3.40
2019-03-23T03:39:19.195Z,3.30
2019-03-23T03:44:25.245Z,3.30
2019-03-23T03:49:29.921Z,3.30
2019-03-23T03:54:34.036Z,5.50
2019-03-23T03:59:38.980Z,3.60
2019-03-23T04:04:43.157Z,3.80
2019-03-23T04:09:47.280Z,3.80
2019-03-23T04:14:51.402Z,3.90
2019-03-23T04:19:56.742Z,3.80
2019-03-23T04:25:02.081Z,3.70
2019-03-23T04:30:06.990Z,3.70
2019-03-23T04:35:11.695Z,5.50
2019-03-23T04:40:15.816Z,3.60
2019-03-23T04:45:20.170Z,3.60
2019-03-23T04:50:24.798Z,3.60
2019-03-23T04:55:29.939Z,3.70
2019-03-23T05:00:36.243Z,3.70
2019-03-23T05:05:40.746Z,3.90
2019-03-23T05:10:45.265Z,3.90
2019-03-23T05:15:49.365Z,4.10
2019-03-23T05:20:53.799Z,4.10
2019-03-23T05:25:57.983Z,4.30
2019-03-23T05:31:02.188Z,4.30
2019-03-23T05:36:06.628Z,4.50
2019-03-23T05:41:10.871Z,4.60
2019-03-23T05:46:16.205Z,4.80
2019-03-23T05:51:20.769Z,4.90
2019-03-23T05:56:26.685Z,5.10
2019-03-23T06:01:30.831Z,5.20
2019-03-23T06:06:35.968Z,5.50
2019-03-23T06:11:40.956Z,5.50
2019-03-23T06:16:45.434Z,5.80
2019-03-23T06:21:49.960Z,6.00
2019-03-23T06:26:54.209Z,6.20
2019-03-23T06:31:58.613Z,6.50
2019-03-23T06:37:03.403Z,6.60
2019-03-23T06:42:07.920Z,6.90
2019-03-23T06:47:12.029Z,7.10
2019-03-23T06:52:18.165Z,7.20
2019-03-23T06:57:22.419Z,7.40
2019-03-23T07:02:28.363Z,7.60
2019-03-23T07:07:34.681Z,7.60
2019-03-23T07:12:39.724Z,7.70
2019-03-23T07:17:44.200Z,7.80
2019-03-23T07:22:48.774Z,7.80
2019-03-23T07:27:53.261Z,7.90
2019-03-23T07:32:58.099Z,8.00
2019-03-23T07:38:02.902Z,8.00
2019-03-23T07:43:08.106Z,8.10
2019-03-23T07:48:12.876Z,8.10
2019-03-23T07:53:17.715Z,8.20
2019-03-23T07:58:22.088Z,8.30
2019-03-23T08:03:27.037Z,8.60
2019-03-23T08:08:31.132Z,8.90
2019-03-23T08:13:36.074Z,9.10
2019-03-23T08:18:40.196Z,9.20
2019-03-23T08:23:45.803Z,9.50
2019-03-23T08:28:49.979Z,9.70
2019-03-23T08:33:54.197Z,9.70
2019-03-23T08:38:58.667Z,9.90
2019-03-23T08:44:02.914Z,9.90
2019-03-23T08:49:09.282Z,10.10
2019-03-23T08:54:13.452Z,10.20
2019-03-23T08:59:17.819Z,10.60
2019-03-23T09:04:22.776Z,10.90
2019-03-23T09:09:29.175Z,11.20
2019-03-23T09:14:33.710Z,11.40
2019-03-23T09:19:38.575Z,11.60
2019-03-23T09:24:42.675Z,11.80
2019-03-23T09:29:47.415Z,12.10
2019-03-23T09:34:52.122Z,12.10
2019-03-23T09:39:58.609Z,12.40
2019-03-23T09:45:02.986Z,12.50
2019-03-23T09:50:07.782Z,12.50
2019-03-23T09:55:12.193Z,12.60
2019-03-23T10:00:16.381Z,12.70
2019-03-23T10:05:22.279Z,13.00
2019-03-23T10:10:28.022Z,13.30
2019-03-23T10:15:32.946Z,13.50
2019-03-23T10:20:37.430Z,13.90
2019-03-23T10:25:42.431Z,13.90
2019-03-23T10:30:46.757Z,13.90
2019-03-23T10:35:53.502Z,13.90
2019-03-23T10:40:56.999Z,13.90
2019-03-23T10:46:04.152Z,14.00
2019-03-23T10:51:09.294Z,14.10
2019-03-23T10:56:13.689Z,14.30
2019-03-23T11:01:17.819Z,14.50
2019-03-23T11:06:24.785Z,14.50
2019-03-23T11:11:31.007Z,14.80
2019-03-23T11:16:35.402Z,14.80
2019-03-23T11:21:40.304Z,14.90
2019-03-23T11:26:44.648Z,15.00
2019-03-23T11:31:49.048Z,15.10
2019-03-23T11:36:55.299Z,15.30
2019-03-23T11:42:02.237Z,15.40
2019-03-23T11:47:06.374Z,15.50
2019-03-23T11:52:10.652Z,15.60
2019-03-23T11:57:15.120Z,15.70
2019-03-23T12:02:19.447Z,15.80
2019-03-23T12:07:23.597Z,16.00
2019-03-23T12:12:28.569Z,16.00
2019-03-23T12:17:32.772Z,16.10
2019-03-23T12:22:37.115Z,16.40
2019-03-23T12:27:42.550Z,16.50
2019-03-23T12:32:47.388Z,16.40
2019-03-23T12:37:51.514Z,16.70
2019-03-23T12:42:57.242Z,17.10
2019-03-23T12:48:02.464Z,17.70
2019-03-23T12:53:08.379Z,17.70
2019-03-23T12:58:12.474Z,17.60
2019-03-23T13:03:16.573Z,17.40
2019-03-23T13:08:21.947Z,17.50
2019-03-23T13:13:26.876Z,17.50
2019-03-23T13:18:31.040Z,17.30
2019-03-23T13:23:36.047Z,17.20
2019-03-23T13:28:40.553Z,17.00
2019-03-23T13:33:44.691Z,17.10
2019-03-23T13:38:48.987Z,17.10
2019-03-23T13:43:53.074Z,17.10
2019-03-23T13:48:57.487Z,17.30
2019-03-23T13:54:03.198Z,17.50
2019-03-23T13:59:07.612Z,17.60
2019-03-23T14:04:13.538Z,17.70
2019-03-23T14:09:17.934Z,17.70
2019-03-23T14:14:22.151Z,17.80
2019-03-23T14:19:26.282Z,17.70
2019-03-23T14:24:30.431Z,17.80
2019-03-23T14:29:34.612Z,17.80
2019-03-23T14:34:38.963Z,17.90
2019-03-23T14:39:43.085Z,18.10
2019-03-23T14:44:49.028Z,18.10
2019-03-23T14:49:53.263Z,18.20
2019-03-23T14:54:57.363Z,18.00
2019-03-23T15:00:01.680Z,18.00
2019-03-23T15:05:08.021Z,18.10
2019-03-23T15:10:12.325Z,18.20
2019-03-23T15:15:17.368Z,18.10
2019-03-23T15:20:21.616Z,19.80
2019-03-23T15:25:26.692Z,26.70
2019-03-23T15:30:30.884Z,32.20
2019-03-23T15:35:35.252Z,35.20
2019-03-23T15:40:40.268Z,37.00
2019-03-23T15:45:45.959Z,36.50
2019-03-23T15:50:50.104Z,37.20
2019-03-23T15:55:54.366Z,37.70
2019-03-23T16:00:58.513Z,37.00
2019-03-23T16:06:02.641Z,35.10
2019-03-23T16:11:07.564Z,33.90
2019-03-23T16:16:11.645Z,34.30
2019-03-23T16:21:16.076Z,32.60
2019-03-23T16:26:21.215Z,29.90
2019-03-23T16:31:26.254Z,27.60
2019-03-23T16:36:30.408Z,25.10
2019-03-23T16:41:34.420Z,20.10
2019-03-23T16:46:40.179Z,18.70
2019-03-23T16:51:44.362Z,17.60
2019-03-23T16:56:49.046Z,16.80
2019-03-23T17:01:54.277Z,16.10
2019-03-23T17:06:59.301Z,15.50
2019-03-23T17:12:03.660Z,15.10
2019-03-23T17:17:11.600Z,14.70
2019-03-23T17:22:16.580Z,14.30
2019-03-23T17:27:22.862Z,14.00
2019-03-23T17:32:27.105Z,13.80
2019-03-23T17:37:31.196Z,13.60
2019-03-23T17:42:37.236Z,13.50
2019-03-23T17:47:42.699Z,13.40
2019-03-23T17:52:47.912Z,13.30
2019-03-23T18:02:56.933Z,13.20
2019-03-23T18:08:01.152Z,13.20
2019-03-23T18:13:15.960Z,13.10
2019-03-23T18:18:14.424Z,13.00
2019-03-23T18:23:19.365Z,12.90
2019-03-23T18:28:23.462Z,12.80
2019-03-23T18:33:29.760Z,12.70
2019-03-23T18:38:34.790Z,12.70
2019-03-23T18:43:39.731Z,12.60
2019-03-23T18:48:46.479Z,12.50
2019-03-23T18:53:52.794Z,12.40
2019-03-23T18:58:57.128Z,12.30
2019-03-23T19:04:01.969Z,12.30
2019-03-23T19:09:07.213Z,12.20
2019-03-23T19:14:12.355Z,12.20
2019-03-23T19:19:18.949Z,12.10
2019-03-23T19:24:24.349Z,12.10
2019-03-23T19:29:28.467Z,12.00
2019-03-23T19:34:32.677Z,12.00
2019-03-23T19:39:38.138Z,11.90
2019-03-23T19:44:42.622Z,11.90
2019-03-23T19:49:46.760Z,11.80
2019-03-23T19:54:51.232Z,11.80
2019-03-23T19:59:56.139Z,11.70
2019-03-23T20:05:00.418Z,11.60
2019-03-23T20:10:05.956Z,11.60
2019-03-23T20:15:10.905Z,11.60
2019-03-23T20:20:15.442Z,11.60
2019-03-23T20:25:20.656Z,11.70
2019-03-23T20:30:24.757Z,11.90
2019-03-23T20:35:30.249Z,12.30
2019-03-23T20:40:34.693Z,12.50
2019-03-23T20:45:39.044Z,12.40
2019-03-23T20:50:44.562Z,12.40
2019-03-23T20:55:48.712Z,12.50
2019-03-23T21:00:52.881Z,12.60
2019-03-23T21:05:57.956Z,12.40
2019-03-23T21:11:04.105Z,12.30
2019-03-23T21:16:09.440Z,12.20
2019-03-23T21:21:13.805Z,12.00
2019-03-23T21:26:19.612Z,11.90
2019-03-23T21:31:25.756Z,11.80
2019-03-23T21:36:30.730Z,11.50
2019-03-23T21:41:35.317Z,11.20
2019-03-23T21:46:40.913Z,10.90
2019-03-23T21:51:45.049Z,10.70
2019-03-23T21:56:49.998Z,10.50
2019-03-23T22:01:54.339Z,10.30
2019-03-23T22:06:58.924Z,10.10
2019-03-23T22:12:04.458Z,12.70
2019-03-23T22:17:10.058Z,9.90
2019-03-23T22:22:14.597Z,9.80
2019-03-23T22:27:19.273Z,9.70
2019-03-23T22:32:24.488Z,9.50
2019-03-23T22:37:30.615Z,9.50
2019-03-23T22:42:36.211Z,9.30
2019-03-23T22:47:40.405Z,9.10
2019-03-23T22:52:45.956Z,8.80
2019-03-23T22:57:50.345Z,8.80
2019-03-23T23:08:01.717Z,8.40
2019-03-23T23:13:05.793Z,8.20
2019-03-23T23:18:11.160Z,8.10
2019-03-23T23:23:16.367Z,7.90
2019-03-23T23:28:21.394Z,7.90
2019-03-23T23:33:25.892Z,7.90
2019-03-23T23:38:31.828Z,7.70
2019-03-23T23:43:37.230Z,7.70
2019-03-23T23:48:50.860Z,7.60
2019-03-23T23:53:49.146Z,7.60
2019-03-23T23:58:54.150Z,7.60
